createdAt,value
2016-06-30T00:00:07.254Z,87.35
2016-06-30T00:01:07.249Z,87.12
2016-06-30T00:02:07.266Z,87.64
2016-06-30T00:03:07.618Z,87.21
2016-06-30T00:04:07.269Z,87.31
2016-06-30T00:05:07.293Z,87.41
2016-06-30T00:06:07.258Z,87.41
2016-06-30T00:07:07.299Z,87.41
2016-06-30T00:08:07.319Z,87.31
2016-06-30T00:09:07.313Z,87.31
2016-06-30T00:10:07.307Z,87.88
2016-06-30T00:11:07.320Z,87.5
2016-06-30T00:12:07.273Z,87.41
2016-06-30T00:13:07.298Z,86.93
2016-06-30T00:14:07.273Z,87.21
2016-06-30T00:15:07.278Z,87.02
2016-06-30T00:16:07.365Z,87.31
2016-06-30T00:17:07.334Z,87.31
2016-06-30T00:18:07.345Z,87.16
2016-06-30T00:19:07.315Z,87.35
2016-06-30T00:20:07.336Z,87.07
2016-06-30T00:21:07.322Z,87.31
2016-06-30T00:22:07.285Z,87.12
2016-06-30T00:23:07.323Z,87.26
2016-06-30T00:24:07.438Z,87.21
2016-06-30T00:25:07.346Z,87.02
2016-06-30T00:26:07.314Z,86.64
2016-06-30T00:27:07.341Z,86.97
2016-06-30T00:28:07.362Z,86.74
2016-06-30T00:29:07.319Z,87.12
2016-06-30T00:30:07.325Z,86.78
2016-06-30T00:31:07.304Z,86.35
2016-06-30T00:32:07.387Z,86.74
2016-06-30T00:33:07.315Z,87.26
2016-06-30T00:34:07.318Z,86.68
2016-06-30T00:35:07.367Z,86.68
2016-06-30T00:36:07.365Z,87.07
2016-06-30T00:37:07.380Z,86.97
2016-06-30T00:38:07.367Z,86.68
2016-06-30T00:39:07.399Z,87.16
2016-06-30T00:40:07.361Z,86.25
2016-06-30T00:41:07.363Z,86.54
2016-06-30T00:42:07.386Z,86.49
2016-06-30T00:43:07.367Z,86.93
2016-06-30T00:44:07.363Z,86.64
2016-06-30T00:45:07.370Z,86.16
2016-06-30T00:46:07.494Z,86.78
2016-06-30T00:47:07.473Z,86.74
2016-06-30T00:48:07.390Z,86.58
2016-06-30T00:49:07.360Z,86.54
2016-06-30T00:50:07.486Z,86.64
2016-06-30T00:51:07.382Z,86.45
2016-06-30T00:52:07.401Z,86.54
2016-06-30T00:53:07.489Z,86.78
2016-06-30T00:54:07.399Z,86.54
2016-06-30T00:55:07.442Z,86.45
2016-06-30T00:56:07.507Z,86.45
2016-06-30T00:57:07.364Z,86.54
2016-06-30T00:58:07.424Z,86.74
2016-06-30T00:59:07.498Z,86.64
2016-06-30T01:00:07.414Z,86.49
2016-06-30T01:01:07.425Z,86.45
2016-06-30T01:02:07.525Z,86.01
2016-06-30T01:03:07.728Z,86.58
2016-06-30T01:04:07.430Z,86.78
2016-06-30T01:05:07.389Z,86.78
2016-06-30T01:06:07.425Z,86.74
2016-06-30T01:07:07.435Z,86.4
2016-06-30T01:08:07.415Z,86.78
2016-06-30T01:09:07.474Z,86.88
2016-06-30T01:10:07.433Z,86.88
2016-06-30T01:11:07.429Z,87.07
2016-06-30T01:12:07.435Z,87.16
2016-06-30T01:13:07.424Z,86.93
2016-06-30T01:14:07.447Z,87.41
2016-06-30T01:15:07.474Z,87.21
2016-06-30T01:16:07.473Z,87.31
2016-06-30T01:17:07.525Z,87.5
2016-06-30T01:18:07.473Z,87.41
2016-06-30T01:19:07.484Z,87.21
2016-06-30T01:20:07.477Z,87.88
2016-06-30T01:21:07.487Z,87.79
2016-06-30T01:22:07.511Z,88.08
2016-06-30T01:23:07.513Z,87.6
2016-06-30T01:24:07.482Z,87.98
2016-06-30T01:25:07.493Z,87.7
2016-06-30T01:26:07.495Z,88.17
2016-06-30T01:27:07.455Z,88.56
2016-06-30T01:28:07.464Z,88.08
2016-06-30T01:29:07.472Z,88.65
2016-06-30T01:30:07.472Z,88.37
2016-06-30T01:31:07.483Z,88.75
2016-06-30T01:32:07.481Z,88.94
2016-06-30T01:33:07.538Z,88.94
2016-06-30T01:34:07.532Z,89.23
2016-06-30T01:35:07.465Z,89.71
2016-06-30T01:36:07.502Z,89.23
2016-06-30T01:37:07.650Z,89.13
2016-06-30T01:38:07.678Z,89.9
2016-06-30T01:39:07.506Z,89.61
2016-06-30T01:40:07.532Z,89.9
2016-06-30T01:41:07.520Z,90
2016-06-30T01:42:07.536Z,89.8
2016-06-30T01:43:07.498Z,90
2016-06-30T01:44:07.521Z,90.09
2016-06-30T01:45:07.494Z,90.28
2016-06-30T01:46:07.533Z,90.19
2016-06-30T01:47:07.485Z,90.67
2016-06-30T01:48:07.529Z,91.05
2016-06-30T01:49:07.704Z,90.95
2016-06-30T01:50:07.540Z,90.81
2016-06-30T01:51:07.542Z,91.14
2016-06-30T01:52:07.598Z,91.14
2016-06-30T01:53:07.550Z,91.34
2016-06-30T01:54:07.592Z,91.53
2016-06-30T01:55:07.569Z,91.43
2016-06-30T01:56:07.511Z,92.1
2016-06-30T01:57:07.514Z,91.82
2016-06-30T01:58:07.522Z,91.34
2016-06-30T01:59:07.564Z,91.67
2016-06-30T02:00:08.329Z,91.91
2016-06-30T02:01:07.519Z,92.01
2016-06-30T02:02:07.555Z,91.63
2016-06-30T02:03:07.612Z,92.2
2016-06-30T02:04:07.646Z,92.2
2016-06-30T02:05:07.599Z,92.44
2016-06-30T02:06:07.520Z,92.15
2016-06-30T02:07:07.613Z,92.25
2016-06-30T02:08:07.618Z,92.39
2016-06-30T02:09:07.570Z,92.58
2016-06-30T02:10:07.548Z,92.63
2016-06-30T02:11:07.564Z,92.92
2016-06-30T02:12:07.539Z,92.82
2016-06-30T02:13:07.619Z,93.4
2016-06-30T02:14:07.901Z,93.11
2016-06-30T02:15:07.588Z,93.44
2016-06-30T02:16:07.617Z,93.59
2016-06-30T02:17:07.584Z,93.49
2016-06-30T02:18:07.658Z,93.88
2016-06-30T02:19:07.584Z,93.78
2016-06-30T02:20:07.602Z,93.59
2016-06-30T02:21:07.553Z,93.88
2016-06-30T02:22:07.558Z,94.45
2016-06-30T02:23:07.585Z,94.26
2016-06-30T02:24:07.589Z,94.35
2016-06-30T02:25:07.593Z,94.35
2016-06-30T02:26:07.650Z,94.26
2016-06-30T02:27:07.735Z,94.07
2016-06-30T02:28:07.630Z,94.64
2016-06-30T02:29:07.648Z,95.31
2016-06-30T02:30:07.967Z,95.03
2016-06-30T02:31:07.627Z,94.64
2016-06-30T02:32:07.619Z,95.51
2016-06-30T02:33:08.162Z,95.31
2016-06-30T02:34:07.609Z,95.12
2016-06-30T02:35:07.682Z,95.12
2016-06-30T02:36:07.607Z,95.31
2016-06-30T02:37:07.758Z,95.12
2016-06-30T02:38:07.698Z,95.7
2016-06-30T02:39:07.887Z,95.12
2016-06-30T02:40:07.683Z,95.79
2016-06-30T02:41:07.679Z,95.98
2016-06-30T02:42:07.724Z,95.79
2016-06-30T02:43:07.880Z,95.79
2016-06-30T02:44:07.660Z,95.7
2016-06-30T02:45:07.646Z,96.08
2016-06-30T02:46:07.659Z,96.08
2016-06-30T02:47:07.700Z,95.98
2016-06-30T02:48:07.742Z,96.18
2016-06-30T02:49:07.959Z,96.18
2016-06-30T02:50:08.062Z,96.37
2016-06-30T02:51:07.766Z,96.66
2016-06-30T02:52:07.884Z,96.37
2016-06-30T02:53:07.702Z,96.66
2016-06-30T02:54:07.713Z,96.56
2016-06-30T02:55:07.734Z,96.75
2016-06-30T02:56:08.358Z,96.75
2016-06-30T02:57:07.727Z,97.14
2016-06-30T02:58:07.786Z,96.66
2016-06-30T02:59:07.684Z,96.94
2016-06-30T03:00:07.725Z,97.52
2016-06-30T03:01:07.754Z,97.33
2016-06-30T03:02:07.880Z,96.94
2016-06-30T03:03:07.697Z,97.14
2016-06-30T03:04:07.915Z,97.23
2016-06-30T03:05:07.780Z,97.71
2016-06-30T03:06:07.869Z,97.52
2016-06-30T03:07:07.684Z,97.9
2016-06-30T03:08:07.730Z,97.9
2016-06-30T03:09:07.746Z,97.8
2016-06-30T03:10:07.736Z,97.9
2016-06-30T03:11:07.804Z,98.28
2016-06-30T03:12:07.805Z,98
2016-06-30T03:13:07.749Z,98.1
2016-06-30T03:14:07.970Z,98
2016-06-30T03:15:07.792Z,98.1
2016-06-30T03:16:07.826Z,98.19
2016-06-30T03:17:07.826Z,98.19
2016-06-30T03:18:07.805Z,97.9
2016-06-30T03:19:07.833Z,97.9
2016-06-30T03:20:07.810Z,98.28
2016-06-30T03:21:07.804Z,98
2016-06-30T03:22:07.872Z,98.38
2016-06-30T03:23:07.943Z,98.19
2016-06-30T03:24:08.159Z,98.38
2016-06-30T03:25:08.012Z,98.47
2016-06-30T03:26:08.028Z,98.47
2016-06-30T03:27:07.863Z,98.67
2016-06-30T03:28:07.952Z,98.76
2016-06-30T03:29:08.009Z,98.67
2016-06-30T03:30:07.871Z,98.47
2016-06-30T03:31:07.892Z,99.15
2016-06-30T03:32:07.921Z,98.67
2016-06-30T03:33:08.002Z,98.28
2016-06-30T03:34:08.073Z,98.67
2016-06-30T03:47:08.895Z,99.15
2016-06-30T03:47:17.187Z,99.34
2016-06-30T03:48:17.114Z,99.82
2016-06-30T03:49:17.650Z,99.72
2016-06-30T03:50:17.751Z,99.63
2016-06-30T03:51:17.151Z,99.63
2016-06-30T03:52:17.286Z,99.91
2016-06-30T03:53:17.522Z,99.99
2016-06-30T03:54:17.266Z,99.99
2016-06-30T03:55:17.408Z,99.99
2016-06-30T03:56:18.017Z,99.82
2016-06-30T03:57:17.194Z,99.77
2016-06-30T03:58:17.814Z,99.99
2016-06-30T03:59:17.061Z,99.99
2016-06-30T04:00:17.645Z,99.99
2016-06-30T04:01:17.140Z,99.99
2016-06-30T04:02:17.202Z,99.99
2016-06-30T04:03:18.355Z,99.99
2016-06-30T04:04:17.217Z,99.99
2016-06-30T04:05:17.323Z,99.99
2016-06-30T04:06:17.313Z,99.99
2016-06-30T04:07:17.135Z,99.99
2016-06-30T04:08:17.211Z,99.99
2016-06-30T04:09:17.239Z,99.99
2016-06-30T04:10:17.622Z,99.99
2016-06-30T04:11:17.418Z,99.99
2016-06-30T04:12:17.166Z,99.99
2016-06-30T04:13:17.165Z,99.99
2016-06-30T04:14:17.243Z,99.99
2016-06-30T04:15:17.318Z,99.99
2016-06-30T04:16:17.263Z,99.99
2016-06-30T04:17:17.460Z,99.99
2016-06-30T04:18:17.328Z,99.99
2016-06-30T04:19:17.243Z,99.99
2016-06-30T04:20:17.293Z,99.99
2016-06-30T04:21:17.192Z,99.99
2016-06-30T04:22:17.207Z,99.99
2016-06-30T04:23:17.247Z,99.99
2016-06-30T04:24:17.328Z,99.99
2016-06-30T04:25:17.357Z,99.99
2016-06-30T04:26:17.310Z,99.99
2016-06-30T04:27:17.517Z,99.99
2016-06-30T04:28:17.501Z,99.99
2016-06-30T04:29:17.304Z,99.99
2016-06-30T04:30:17.264Z,99.99
2016-06-30T04:31:17.205Z,99.99
2016-06-30T04:32:17.864Z,99.99
2016-06-30T04:33:17.377Z,99.99
2016-06-30T04:34:17.510Z,99.99
2016-06-30T04:35:18.668Z,99.99
2016-06-30T04:36:17.255Z,99.99
2016-06-30T04:37:17.251Z,99.99
2016-06-30T04:38:17.487Z,99.99
2016-06-30T04:39:17.468Z,99.99
2016-06-30T04:40:17.233Z,99.99
2016-06-30T04:41:17.327Z,99.99
2016-06-30T04:42:17.683Z,99.99
2016-06-30T04:43:17.327Z,99.99
2016-06-30T04:44:17.614Z,99.99
2016-06-30T04:45:17.599Z,99.99
2016-06-30T04:46:17.370Z,99.99
2016-06-30T04:47:17.444Z,99.99
2016-06-30T04:48:17.190Z,99.99
2016-06-30T04:49:17.666Z,99.99
2016-06-30T04:50:17.392Z,99.99
2016-06-30T04:51:17.326Z,99.99
2016-06-30T04:52:17.352Z,99.99
2016-06-30T04:53:17.309Z,99.99
2016-06-30T04:54:17.482Z,99.99
2016-06-30T04:55:17.381Z,99.99
2016-06-30T04:56:17.319Z,99.99
2016-06-30T04:57:17.348Z,99.99
2016-06-30T04:58:17.275Z,99.99
2016-06-30T04:59:17.285Z,99.99
2016-06-30T05:00:17.337Z,99.99
2016-06-30T05:01:17.350Z,99.99
2016-06-30T05:02:17.243Z,99.99
2016-06-30T05:03:17.315Z,99.99
2016-06-30T05:04:17.288Z,99.99
2016-06-30T05:05:17.417Z,99.99
2016-06-30T05:06:17.492Z,99.99
2016-06-30T05:07:17.274Z,99.99
2016-06-30T05:08:17.268Z,99.99
2016-06-30T05:09:17.382Z,99.99
2016-06-30T05:10:17.366Z,99.99
2016-06-30T05:11:17.233Z,99.99
2016-06-30T05:12:17.524Z,99.99
2016-06-30T05:13:17.322Z,99.99
2016-06-30T05:14:17.270Z,99.99
2016-06-30T05:15:17.416Z,99.99
2016-06-30T05:16:17.499Z,99.99
2016-06-30T05:17:17.535Z,99.99
2016-06-30T05:18:17.398Z,99.99
2016-06-30T05:19:17.298Z,99.99
2016-06-30T05:20:17.370Z,99.99
2016-06-30T05:21:17.286Z,99.99
2016-06-30T05:22:17.334Z,99.99
2016-06-30T05:23:17.343Z,99.99
2016-06-30T05:24:17.434Z,99.99
2016-06-30T05:25:17.335Z,99.99
2016-06-30T05:26:17.525Z,99.99
2016-06-30T05:27:17.346Z,99.99
2016-06-30T05:28:17.366Z,99.99
2016-06-30T05:29:17.589Z,99.99
2016-06-30T05:30:17.409Z,99.99
2016-06-30T05:31:17.413Z,99.99
2016-06-30T05:32:17.498Z,99.99
2016-06-30T05:33:17.463Z,99.99
2016-06-30T05:34:17.370Z,99.99
2016-06-30T05:35:17.437Z,99.99
2016-06-30T05:36:17.345Z,99.99
2016-06-30T05:37:17.425Z,99.99
2016-06-30T05:38:17.384Z,99.99
2016-06-30T05:39:17.471Z,99.99
2016-06-30T05:40:17.303Z,99.99
2016-06-30T05:41:17.485Z,99.99
2016-06-30T05:42:17.440Z,99.99
2016-06-30T05:43:17.303Z,99.99
2016-06-30T05:44:17.376Z,99.99
2016-06-30T05:45:17.386Z,99.99
2016-06-30T05:46:17.393Z,99.99
2016-06-30T05:47:17.363Z,99.99
2016-06-30T05:48:17.374Z,99.99
2016-06-30T05:49:17.340Z,99.99
2016-06-30T05:50:17.436Z,99.99
2016-06-30T05:51:17.432Z,99.99
2016-06-30T05:52:17.366Z,99.99
2016-06-30T05:53:17.410Z,99.99
2016-06-30T05:54:17.367Z,99.99
2016-06-30T05:55:17.362Z,99.99
2016-06-30T05:56:17.420Z,99.99
2016-06-30T05:57:17.422Z,99.99
2016-06-30T05:58:17.406Z,99.99
2016-06-30T05:59:17.410Z,99.99
2016-06-30T06:00:17.383Z,99.99
2016-06-30T06:01:17.348Z,99.99
2016-06-30T06:02:17.414Z,99.99
2016-06-30T06:03:17.413Z,99.99
2016-06-30T06:04:17.408Z,99.99
2016-06-30T06:05:17.499Z,99.99
2016-06-30T06:06:17.529Z,99.99
2016-06-30T06:07:17.648Z,99.99
2016-06-30T06:08:17.506Z,99.99
2016-06-30T06:09:17.486Z,99.99
2016-06-30T06:10:17.458Z,99.99
2016-06-30T06:11:17.614Z,99.99
2016-06-30T06:12:17.402Z,99.99
2016-06-30T06:13:17.543Z,99.99
2016-06-30T06:14:17.478Z,99.99
2016-06-30T06:15:17.534Z,99.99
2016-06-30T06:16:18.235Z,99.99
2016-06-30T06:17:17.488Z,99.99
2016-06-30T06:18:17.458Z,99.99
2016-06-30T06:19:17.515Z,99.99
2016-06-30T06:20:17.500Z,99.99
2016-06-30T06:21:17.398Z,99.99
2016-06-30T06:22:17.419Z,99.99
2016-06-30T06:23:17.426Z,99.99
2016-06-30T06:24:17.465Z,99.99
2016-06-30T06:25:17.485Z,99.99
2016-06-30T06:26:17.475Z,99.99
2016-06-30T06:27:17.426Z,99.99
2016-06-30T06:28:17.449Z,99.99
2016-06-30T06:29:17.473Z,99.99
2016-06-30T06:30:17.478Z,99.99
2016-06-30T06:31:17.540Z,99.99
2016-06-30T06:32:17.469Z,99.99
2016-06-30T06:33:17.476Z,99.99
2016-06-30T06:34:17.525Z,99.99
2016-06-30T06:35:17.531Z,99.99
2016-06-30T06:36:17.501Z,99.99
2016-06-30T06:37:17.510Z,99.99
2016-06-30T06:38:17.554Z,99.99
2016-06-30T06:39:17.528Z,99.99
2016-06-30T06:40:17.501Z,99.99
2016-06-30T06:41:17.539Z,99.99
2016-06-30T06:42:17.503Z,99.99
2016-06-30T06:43:17.626Z,99.99
2016-06-30T06:44:18.273Z,99.99
2016-06-30T06:45:17.487Z,99.99
2016-06-30T06:46:17.504Z,99.99
2016-06-30T06:47:17.492Z,99.99
2016-06-30T06:48:17.483Z,99.99
2016-06-30T06:49:17.492Z,99.99
2016-06-30T06:50:17.560Z,99.99
2016-06-30T06:51:18.163Z,99.99
2016-06-30T06:52:17.497Z,99.99
2016-06-30T06:53:17.631Z,99.99
2016-06-30T06:54:17.542Z,99.99
2016-06-30T06:55:17.814Z,99.99
2016-06-30T06:56:17.596Z,99.99
2016-06-30T06:57:17.553Z,99.99
2016-06-30T06:58:17.546Z,99.99
2016-06-30T06:59:17.561Z,99.99
2016-06-30T07:00:17.548Z,99.99
2016-06-30T07:01:17.532Z,99.99
2016-06-30T07:02:17.594Z,99.99
2016-06-30T07:03:17.581Z,99.99
2016-06-30T07:04:17.702Z,99.99
2016-06-30T07:05:17.605Z,99.99
2016-06-30T07:06:17.567Z,99.99
2016-06-30T07:07:17.661Z,99.99
2016-06-30T07:08:17.577Z,99.99
2016-06-30T07:09:17.533Z,99.99
2016-06-30T07:10:17.575Z,99.99
2016-06-30T07:11:17.577Z,99.99
2016-06-30T07:12:17.573Z,99.99
2016-06-30T07:13:17.640Z,99.99
2016-06-30T07:14:17.538Z,99.99
2016-06-30T07:15:17.643Z,99.99
2016-06-30T07:16:17.576Z,99.99
2016-06-30T07:17:17.594Z,99.99
2016-06-30T07:18:17.527Z,99.99
2016-06-30T07:19:17.534Z,99.99
2016-06-30T07:20:19.533Z,99.99
2016-06-30T07:21:17.558Z,99.99
2016-06-30T07:22:18.260Z,99.99
2016-06-30T07:34:25.923Z,99.99
2016-06-30T07:35:25.936Z,99.99
2016-06-30T07:36:25.927Z,99.99
2016-06-30T07:37:32.602Z,99.99
2016-06-30T07:38:27.973Z,99.99
2016-06-30T07:39:25.943Z,99.99
2016-06-30T07:40:25.958Z,99.99
2016-06-30T07:41:25.952Z,99.99
2016-06-30T07:42:26.035Z,99.99
2016-06-30T07:43:25.931Z,99.99
2016-06-30T07:44:25.955Z,99.99
2016-06-30T07:45:26.015Z,99.99
2016-06-30T07:46:26.966Z,99.99
2016-06-30T07:47:26.083Z,99.99
2016-06-30T07:48:25.926Z,99.99
2016-06-30T07:49:25.948Z,99.99
2016-06-30T07:50:25.954Z,99.99
2016-06-30T07:51:25.978Z,99.99
2016-06-30T07:52:25.952Z,99.99
2016-06-30T07:53:25.932Z,99.99
2016-06-30T07:54:26.879Z,99.99
2016-06-30T07:55:25.965Z,99.99
2016-06-30T07:56:25.969Z,99.99
2016-06-30T07:57:26.106Z,99.99
2016-06-30T07:58:26.014Z,99.99
2016-06-30T07:59:25.973Z,99.99
2016-06-30T08:00:26.030Z,99.99
2016-06-30T08:01:25.971Z,99.99
2016-06-30T08:02:25.955Z,99.99
2016-06-30T08:03:25.984Z,99.99
2016-06-30T08:04:25.953Z,99.99
2016-06-30T08:05:25.971Z,99.99
2016-06-30T08:06:25.963Z,99.99
2016-06-30T08:07:25.994Z,99.99
2016-06-30T08:08:26.024Z,99.99
2016-06-30T08:09:25.999Z,99.99
2016-06-30T08:10:26.004Z,99.99
2016-06-30T08:11:26.008Z,99.99
2016-06-30T08:12:25.973Z,99.99
2016-06-30T08:13:25.977Z,99.99
2016-06-30T08:14:25.980Z,99.96
2016-06-30T08:15:26.006Z,99.39
2016-06-30T08:16:26.009Z,99.96
2016-06-30T08:17:26.048Z,99.99
2016-06-30T08:18:25.994Z,99.99
2016-06-30T08:19:26.027Z,99.82
2016-06-30T08:20:26.135Z,99.99
2016-06-30T08:21:25.990Z,99.99
2016-06-30T08:22:25.996Z,99.96
2016-06-30T08:23:26.031Z,99.77
2016-06-30T08:24:26.009Z,99.77
2016-06-30T08:25:26.068Z,99.99
2016-06-30T08:26:26.003Z,99.68
2016-06-30T08:27:26.696Z,99.1
2016-06-30T08:34:55.989Z,99.29
2016-06-30T08:35:03.036Z,99.82
2016-06-30T08:36:03.027Z,99.99
2016-06-30T08:37:03.038Z,99.99
2016-06-30T08:38:03.043Z,99.99
2016-06-30T08:39:03.035Z,99.99
2016-06-30T08:40:03.028Z,99.99
2016-06-30T08:41:03.051Z,99.99
2016-06-30T08:42:03.020Z,99.99
2016-06-30T08:43:03.034Z,99.99
2016-06-30T08:44:03.086Z,99.99
2016-06-30T08:45:03.047Z,99.99
2016-06-30T08:46:03.026Z,99.99
2016-06-30T08:47:03.035Z,99.99
2016-06-30T08:48:03.112Z,99.99
2016-06-30T08:49:03.033Z,99.99
2016-06-30T08:50:03.037Z,99.99
2016-06-30T08:51:03.095Z,99.99
2016-06-30T08:52:03.068Z,99.99
2016-06-30T08:53:03.076Z,99.99
2016-06-30T08:54:03.204Z,99.99
2016-06-30T08:55:03.058Z,99.99
2016-06-30T08:56:03.050Z,99.99
2016-06-30T08:57:03.047Z,99.99
2016-06-30T08:58:03.064Z,99.99
2016-06-30T08:59:03.068Z,99.99
2016-06-30T09:00:03.097Z,99.99
2016-06-30T09:01:03.249Z,99.99
2016-06-30T09:02:03.224Z,99.99
2016-06-30T09:03:03.163Z,99.99
2016-06-30T09:04:03.158Z,99.99
2016-06-30T09:05:03.172Z,99.91
2016-06-30T09:06:03.156Z,99.82
2016-06-30T09:07:03.169Z,99.53
2016-06-30T09:08:03.207Z,99.82
2016-06-30T09:09:03.149Z,99.73
2016-06-30T09:10:03.141Z,99.77
2016-06-30T09:11:03.182Z,99.49
2016-06-30T09:16:21.743Z,99.29
2016-06-30T09:16:28.682Z,99.2
2016-06-30T09:17:28.714Z,99.39
2016-06-30T09:18:28.678Z,99.29
2016-06-30T09:19:28.656Z,99.77
2016-06-30T09:20:28.693Z,99.1
2016-06-30T09:21:28.665Z,99.68
2016-06-30T09:22:28.831Z,99.96
2016-06-30T09:23:28.710Z,99.77
2016-06-30T09:24:28.801Z,99.29
2016-06-30T09:25:28.763Z,99.49
2016-06-30T09:26:28.736Z,99.77
2016-06-30T09:27:28.771Z,99.96
2016-06-30T09:28:28.793Z,99.49
2016-06-30T09:29:28.884Z,99.99
2016-06-30T09:30:28.757Z,99.99
2016-06-30T09:31:28.748Z,99.99
2016-06-30T09:32:28.748Z,99.99
2016-06-30T09:33:28.737Z,99.82
2016-06-30T09:34:28.712Z,99.91
2016-06-30T09:35:28.826Z,99.99
2016-06-30T09:36:28.700Z,99.99
2016-06-30T09:37:28.711Z,99.96
2016-06-30T09:38:28.754Z,99.99
2016-06-30T09:39:28.722Z,99.96
2016-06-30T09:40:28.808Z,99.99
2016-06-30T09:41:28.743Z,99.99
2016-06-30T09:42:28.712Z,99.99
2016-06-30T09:43:28.761Z,99.99
2016-06-30T09:44:28.735Z,99.29
2016-06-30T09:45:28.718Z,98.72
2016-06-30T09:46:28.747Z,98.91
2016-06-30T09:47:28.739Z,99.2
2016-06-30T09:48:28.759Z,98.43
2016-06-30T09:49:28.768Z,98.1
2016-06-30T09:50:28.763Z,97.04
2016-06-30T09:51:28.760Z,96.13
2016-06-30T09:52:28.741Z,94.88
2016-06-30T09:53:28.736Z,94.64
2016-06-30T09:54:28.744Z,93.68
2016-06-30T09:55:28.792Z,93.15
2016-06-30T09:56:28.777Z,92.67
2016-06-30T09:57:28.771Z,92.76
2016-06-30T09:58:28.899Z,94.06
2016-06-30T09:59:28.784Z,94.45
2016-06-30T10:00:28.754Z,92.91
2016-06-30T10:01:28.757Z,93.54
2016-06-30T10:02:28.800Z,93.44
2016-06-30T10:03:28.863Z,93.44
2016-06-30T10:04:29.451Z,93.82
2016-06-30T10:05:28.861Z,93.92
2016-06-30T10:06:28.805Z,94.11
2016-06-30T10:07:28.852Z,94.88
2016-06-30T10:08:28.806Z,94.83
2016-06-30T10:09:28.823Z,95.21
2016-06-30T10:10:28.803Z,94.93
2016-06-30T10:11:28.840Z,95.31
2016-06-30T10:12:28.800Z,95.03
2016-06-30T10:13:28.795Z,94.78
2016-06-30T10:14:28.789Z,94.59
2016-06-30T10:15:28.856Z,94.54
2016-06-30T10:16:28.826Z,94.54
2016-06-30T10:17:28.829Z,95.41
2016-06-30T10:18:28.827Z,95.03
2016-06-30T10:19:28.813Z,94.83
2016-06-30T10:20:28.806Z,95.5
2016-06-30T10:21:28.866Z,95.41
2016-06-30T10:22:28.870Z,95.21
2016-06-30T10:23:28.814Z,95.03
2016-06-30T10:24:28.842Z,95.21
2016-06-30T10:25:28.836Z,95.89
2016-06-30T10:26:28.869Z,95.7
2016-06-30T10:27:28.845Z,95.7
2016-06-30T10:28:28.818Z,96.18
2016-06-30T10:29:28.851Z,96.7
2016-06-30T10:30:28.895Z,97.66
2016-06-30T10:31:28.870Z,97.09
2016-06-30T10:32:28.869Z,97.56
2016-06-30T10:33:28.855Z,97.47
2016-06-30T10:34:28.854Z,96.89
2016-06-30T10:35:28.913Z,96.66
2016-06-30T10:36:28.891Z,96.8
2016-06-30T10:37:28.851Z,95.84
2016-06-30T10:38:28.889Z,96.89
2016-06-30T10:39:28.846Z,96.42
2016-06-30T10:40:28.874Z,96.47
2016-06-30T10:41:28.875Z,95.6
2016-06-30T10:42:28.867Z,95.41
2016-06-30T10:43:28.952Z,94.26
2016-06-30T10:44:28.905Z,94.88
2016-06-30T10:45:28.910Z,94.31
2016-06-30T10:46:28.899Z,91.95
2016-06-30T10:47:28.866Z,91.22
2016-06-30T10:48:28.895Z,89.5
2016-06-30T10:49:28.997Z,88.87
2016-06-30T10:50:28.895Z,88.87
2016-06-30T10:51:28.902Z,88.96
2016-06-30T10:52:28.910Z,89.3
2016-06-30T10:53:28.922Z,89.98
2016-06-30T10:54:28.933Z,90.17
2016-06-30T10:55:28.913Z,90.36
2016-06-30T10:56:28.946Z,90.65
2016-06-30T10:57:28.921Z,91.08
2016-06-30T10:58:28.987Z,91.18
2016-06-30T10:59:28.948Z,91.47
2016-06-30T11:00:28.946Z,91.56
2016-06-30T11:01:28.897Z,92.29
2016-06-30T11:02:28.930Z,91.61
2016-06-30T11:03:29.028Z,92.1
2016-06-30T11:04:29.022Z,90.94
2016-06-30T11:05:28.934Z,91.52
2016-06-30T11:06:28.941Z,91.13
2016-06-30T11:07:28.936Z,90.6
2016-06-30T11:08:28.977Z,90.03
2016-06-30T11:09:28.950Z,90.03
2016-06-30T11:10:28.939Z,89.45
2016-06-30T11:11:29.062Z,89.74
2016-06-30T11:12:28.963Z,89.07
2016-06-30T11:13:28.936Z,88.68
2016-06-30T11:14:28.963Z,88.2
2016-06-30T11:15:28.963Z,88.2
2016-06-30T11:16:28.958Z,87.67
2016-06-30T11:17:29.003Z,87.09
2016-06-30T11:18:28.939Z,86.52
2016-06-30T11:19:28.977Z,86.52
2016-06-30T11:20:28.954Z,85.4
2016-06-30T11:21:28.996Z,86.32
2016-06-30T11:22:28.951Z,85.84
2016-06-30T11:23:28.952Z,86.61
2016-06-30T11:24:29.066Z,87.09
2016-06-30T11:25:28.995Z,87.19
2016-06-30T11:26:29.651Z,87.38
2016-06-30T11:27:29.170Z,86.99
2016-06-30T11:28:28.996Z,87.19
2016-06-30T11:29:28.997Z,87.67
2016-06-30T11:30:28.999Z,87.48
2016-06-30T11:31:29.046Z,87.76
2016-06-30T11:32:29.011Z,87.57
2016-06-30T11:33:29.086Z,88.2
2016-06-30T11:34:29.030Z,88.1
2016-06-30T11:35:29.068Z,87.92
2016-06-30T11:36:28.999Z,87.09
2016-06-30T11:37:29.024Z,86.32
2016-06-30T11:38:29.005Z,86.42
2016-06-30T11:39:29.042Z,86.8
2016-06-30T11:40:28.994Z,85.5
2016-06-30T11:41:29.036Z,84.77
2016-06-30T11:42:28.999Z,85.31
2016-06-30T11:43:29.114Z,85.88
2016-06-30T11:44:29.043Z,85.88
2016-06-30T11:45:29.094Z,86.27
2016-06-30T11:46:29.074Z,86.56
2016-06-30T11:47:29.075Z,86.08
2016-06-30T11:48:29.024Z,86.71
2016-06-30T11:49:29.059Z,86.71
2016-06-30T11:50:29.018Z,87.29
2016-06-30T11:51:29.026Z,87.62
2016-06-30T11:52:29.052Z,87.82
2016-06-30T11:53:29.052Z,88.44
2016-06-30T11:54:29.078Z,88.78
2016-06-30T11:55:29.057Z,88.97
2016-06-30T11:56:29.031Z,89.64
2016-06-30T11:57:29.042Z,89.64
2016-06-30T11:58:29.047Z,89.83
2016-06-30T11:59:29.045Z,89.98
2016-06-30T12:00:29.129Z,90.66
2016-06-30T12:01:29.052Z,90.66
2016-06-30T12:02:29.078Z,91.23
2016-06-30T12:03:29.117Z,91.71
2016-06-30T12:04:29.074Z,92.48
2016-06-30T12:05:29.083Z,93.05
2016-06-30T12:06:29.048Z,93.82
2016-06-30T12:07:29.306Z,92.86
2016-06-30T12:08:29.782Z,92.96
2016-06-30T12:09:29.111Z,92.48
2016-06-30T12:10:29.096Z,93.15
2016-06-30T12:11:29.089Z,92.19
2016-06-30T12:12:29.161Z,92.29
2016-06-30T12:13:29.073Z,91.61
2016-06-30T12:14:29.096Z,91.37
2016-06-30T12:15:29.130Z,91.37
2016-06-30T12:27:37.879Z,88.87
2016-06-30T12:28:37.835Z,89.3
2016-06-30T12:29:37.838Z,89.3
2016-06-30T12:30:38.555Z,89.21
2016-06-30T12:31:37.849Z,89.64
2016-06-30T12:32:38.126Z,89.36
2016-06-30T12:33:38.494Z,90.03
2016-06-30T12:34:37.880Z,89.59
2016-06-30T12:35:37.890Z,89.69
2016-06-30T12:36:37.885Z,89.5
2016-06-30T12:37:37.918Z,89.01
2016-06-30T12:38:37.895Z,89.78
2016-06-30T12:39:37.859Z,89.74
2016-06-30T12:40:37.889Z,89.21
2016-06-30T12:41:37.864Z,89.3
2016-06-30T12:42:37.916Z,89.74
2016-06-30T12:43:37.970Z,90.22
2016-06-30T12:44:37.938Z,89.98
2016-06-30T12:45:37.912Z,89.98
2016-06-30T12:46:37.888Z,89.78
2016-06-30T12:47:37.982Z,89.21
2016-06-30T12:48:37.890Z,88.82
2016-06-30T12:49:37.881Z,89.78
2016-06-30T12:50:37.931Z,90.03
2016-06-30T12:51:37.996Z,88.92
2016-06-30T12:52:37.899Z,88.24
2016-06-30T12:53:37.914Z,87.62
2016-06-30T12:54:37.912Z,86.31
2016-06-30T12:55:37.907Z,85.58
2016-06-30T12:56:37.889Z,84.91
2016-06-30T12:57:37.958Z,85.49
2016-06-30T12:58:37.915Z,85.54
2016-06-30T12:59:37.900Z,85.39
2016-06-30T13:00:37.906Z,84.76
2016-06-30T13:01:37.910Z,84.76
2016-06-30T13:02:37.905Z,85.2
2016-06-30T13:03:37.946Z,84.81
2016-06-30T13:04:37.942Z,84.77
2016-06-30T13:05:37.924Z,85.44
2016-06-30T13:06:37.957Z,85.54
2016-06-30T13:07:37.943Z,85.44
2016-06-30T13:08:37.926Z,85.83
2016-06-30T13:09:37.927Z,86.12
2016-06-30T13:10:37.970Z,86.22
2016-06-30T13:11:37.951Z,87.33
2016-06-30T13:12:37.949Z,88.44
2016-06-30T13:13:37.987Z,88.15
2016-06-30T13:14:37.966Z,88.44
2016-06-30T13:15:38.026Z,88.82
2016-06-30T13:16:37.977Z,89.11
2016-06-30T13:17:37.970Z,89.3
2016-06-30T13:18:37.995Z,89.45
2016-06-30T13:19:38.012Z,89.54
2016-06-30T13:20:37.981Z,89.88
2016-06-30T13:21:37.994Z,89.59
2016-06-30T13:22:37.999Z,89.88
2016-06-30T13:23:37.984Z,89.21
2016-06-30T13:24:37.962Z,89.3
2016-06-30T13:25:37.974Z,89.59
2016-06-30T13:26:37.969Z,89.5
2016-06-30T13:27:38.064Z,89.88
2016-06-30T13:28:38.021Z,90.17
2016-06-30T13:29:37.974Z,90.31
2016-06-30T13:30:38.002Z,90.6
2016-06-30T13:31:38.006Z,90.03
2016-06-30T13:32:38.035Z,90.31
2016-06-30T13:33:37.993Z,89.93
2016-06-30T13:34:37.988Z,90.12
2016-06-30T13:35:38.036Z,90.8
2016-06-30T13:36:38.001Z,90.89